עמוד ראשי
METAR-TAF:

METAR-TAF

שדות תעופה :

דובאי, איחוד האמירויות הערביות

קו רוחב: 24-53-49N, קו אורך: 55-09-40E, גובה: 35מטר

תצפית מזג אוויר נוכחית

הדו"ח נערך לפני 55דקות, בשעה 20:00 UTC
רוח 5קשר מכיוון דרום
טמפרטורת 32 צלסיוס
לחות 63%
לחץ 1000 hPa
ראות 10 קילומטר או יותר
ללא עננים שבסיסם נמוך מ 5000 רגל או קומולונימבוס

METAR: OMDW 132000Z 19005KT CAVOK 32/24 Q1000 NOSIG

זמן: 00:55 (20:55 UTC)

תחזית

הדו"ח נערך לפני 3 שעות ו 55דקות, בשעה 17:00 UTC
תחזית בתוקף מ 13 ב 18 UTC עד 15 ב 00 UTC
רוח 10קשר מכיוון מערב
ראות: 8000מטר
יעשה מ
13 ב 18 UTC עד 13 ב 20 UTC
רוח 8קשר מכיוון דרום
יעשה מ
14 ב 05 UTC עד 14 ב 07 UTC
רוח 15קשר מכיוון מערב/צפון-מערב
הסתברות 30% :
זמנית מ -
14 ב 07 UTC עד 14 ב 13 UTC
רוח 17קשר מכיוון מערב/צפון-מערב עם משבים עד 27קשר
ראות: 3000מטר
אבק נושב
יעשה מ
14 ב 16 UTC עד 14 ב 18 UTC
רוח 6קשר מכיוון דרום

TAF: OMDW 131700Z 1318/1500 26010KT 8000 NSC BECMG 1318/1320 19008KT BECMG 1405/1407 30015KT PROB30 TEMPO 1407/1413 30017G27KT 3000 BLDU BECMG 1416/1418 19006KT

תצפיות ותחזיות מזג אוויר לגבי יותר מ- 4,000 שדות תעופה ברחבי העולם. דוחות METAR ו- TAF.

התחנות הזמינות מסומנות בנקודות צהובות ואדומות על גבי המפה.

העבר את העכבר לנקודה הצבעונית על מנת לראות את שם התחנה.

לאחר מכן, לחץ כדי לראות את תוכן ואת תחזיות מזג האוויר.

כדי לשנות את המפה: לחץ על הכפתורים הירוקים עם הפלוס השחור כדי להתקרב; על הכפתור הירוק עם המקף כדי להתרחק; או בחיצים הירוקים למפות סמוכות.


METAR-TAF: